createdAt,value
2019-03-26T00:01:22.598Z,6.67
2019-03-26T00:04:05.119Z,8.03
2019-03-26T00:06:30.438Z,4.70
2019-03-26T00:09:03.035Z,5.70
2019-03-26T00:11:36.162Z,7.77
2019-03-26T00:14:08.725Z,6.67
2019-03-26T00:16:42.817Z,8.03
2019-03-26T00:19:15.836Z,6.23
2019-03-26T00:21:50.595Z,4.93
2019-03-26T00:24:23.294Z,6.27
2019-03-26T00:26:55.971Z,6.10
2019-03-26T00:29:28.545Z,7.30
2019-03-26T00:32:01.032Z,6.87
2019-03-26T00:34:33.577Z,5.50
2019-03-26T00:37:07.500Z,4.27
2019-03-26T00:39:42.390Z,4.87
2019-03-26T00:42:15.440Z,4.13
2019-03-26T00:44:48.909Z,4.00
2019-03-26T00:47:21.657Z,4.57
2019-03-26T00:49:54.262Z,4.43
2019-03-26T00:52:28.121Z,5.37
2019-03-26T00:55:01.153Z,6.17
2019-03-26T00:57:35.395Z,5.30
2019-03-26T01:00:10.180Z,6.70
2019-03-26T01:02:42.723Z,4.97
2019-03-26T01:05:15.125Z,4.77
2019-03-26T01:07:47.411Z,4.97
2019-03-26T01:10:29.243Z,5.10
2019-03-26T01:13:01.724Z,4.80
2019-03-26T01:15:34.559Z,3.97
2019-03-26T01:18:07.395Z,3.63
2019-03-26T01:20:40.307Z,3.53
2019-03-26T01:23:12.819Z,4.83
2019-03-26T01:25:45.302Z,4.50
2019-03-26T01:28:18.048Z,6.90
2019-03-26T01:30:50.943Z,5.87
2019-03-26T01:33:23.370Z,6.03
2019-03-26T01:35:56.862Z,5.70
2019-03-26T01:38:29.345Z,5.80
2019-03-26T01:41:02.150Z,6.97
2019-03-26T01:43:34.673Z,5.17
2019-03-26T01:46:07.982Z,5.50
2019-03-26T01:48:40.459Z,6.37
2019-03-26T01:51:12.915Z,5.77
2019-03-26T01:53:45.296Z,6.03
2019-03-26T01:56:18.805Z,6.83
2019-03-26T01:58:52.610Z,7.77
2019-03-26T02:01:24.974Z,6.53
2019-03-26T02:03:57.394Z,5.83
2019-03-26T02:06:29.879Z,8.17
2019-03-26T02:09:02.452Z,6.50
2019-03-26T02:11:35.058Z,6.07
2019-03-26T02:14:08.703Z,7.77
2019-03-26T02:16:41.636Z,6.43
2019-03-26T02:19:14.086Z,6.23
2019-03-26T02:21:46.971Z,8.23
2019-03-26T02:24:19.453Z,7.63
2019-03-26T02:26:52.320Z,7.83
2019-03-26T02:29:24.781Z,8.87
2019-03-26T02:31:57.222Z,7.50
2019-03-26T02:34:30.260Z,10.33
2019-03-26T02:37:03.158Z,8.07
2019-03-26T02:39:35.569Z,7.30
2019-03-26T02:42:08.047Z,8.47
2019-03-26T02:44:40.596Z,10.60
2019-03-26T02:47:14.119Z,8.43
2019-03-26T02:49:46.575Z,9.17
2019-03-26T02:52:20.154Z,10.27
2019-03-26T02:54:52.546Z,10.70
2019-03-26T02:57:25.020Z,9.20
2019-03-26T02:59:58.215Z,8.43
2019-03-26T03:02:31.233Z,10.50
2019-03-26T03:05:04.108Z,6.83
2019-03-26T03:07:36.787Z,8.23
2019-03-26T03:10:10.189Z,6.90
2019-03-26T03:12:42.662Z,6.50
2019-03-26T03:15:15.186Z,8.40
2019-03-26T03:17:48.057Z,7.20
2019-03-26T03:20:20.419Z,7.40
2019-03-26T03:22:53.404Z,7.50
2019-03-26T03:25:25.900Z,7.70
2019-03-26T03:27:58.391Z,8.20
2019-03-26T03:30:31.308Z,8.37
2019-03-26T03:33:03.975Z,6.87
2019-03-26T03:35:51.222Z,10.47
2019-03-26T03:38:10.505Z,8.17
2019-03-26T03:40:43.405Z,9.83
2019-03-26T03:43:15.871Z,8.53
2019-03-26T03:45:48.614Z,7.87
2019-03-26T03:48:24.129Z,8.50
2019-03-26T03:50:58.590Z,8.27
2019-03-26T03:53:31.429Z,9.23
2019-03-26T03:56:04.741Z,10.17
2019-03-26T03:58:40.248Z,8.23
2019-03-26T04:01:13.161Z,10.13
2019-03-26T04:03:45.966Z,9.43
2019-03-26T04:06:18.443Z,9.47
2019-03-26T04:08:57.758Z,9.93
2019-03-26T04:11:30.227Z,9.33
2019-03-26T04:14:02.713Z,7.77
2019-03-26T04:16:36.050Z,8.33
2019-03-26T04:19:08.459Z,6.57
2019-03-26T04:21:40.913Z,6.13
2019-03-26T04:24:13.298Z,4.83
2019-03-26T04:26:45.723Z,6.03
2019-03-26T04:29:18.119Z,6.17
2019-03-26T04:31:51.006Z,7.83
2019-03-26T04:34:23.866Z,7.73
2019-03-26T04:36:56.284Z,6.83
2019-03-26T04:39:28.719Z,5.43
2019-03-26T04:42:01.918Z,6.37
2019-03-26T04:44:35.570Z,6.87
2019-03-26T04:47:08.058Z,6.80
2019-03-26T04:49:41.063Z,7.40
2019-03-26T04:52:14.043Z,4.90
2019-03-26T04:54:46.555Z,6.80
2019-03-26T04:57:19.224Z,6.60
2019-03-26T04:59:51.715Z,6.10
2019-03-26T05:02:24.171Z,7.07
2019-03-26T05:04:56.660Z,6.53
2019-03-26T05:07:29.368Z,8.17
2019-03-26T05:10:01.787Z,8.67
2019-03-26T05:12:34.230Z,8.70
2019-03-26T05:15:10.291Z,9.37
2019-03-26T05:17:42.726Z,8.10
2019-03-26T05:20:15.797Z,9.00
2019-03-26T05:22:48.716Z,7.33
2019-03-26T05:25:21.118Z,8.57
2019-03-26T05:27:53.491Z,9.03
2019-03-26T05:30:25.991Z,10.63
2019-03-26T05:32:58.985Z,7.50
2019-03-26T05:35:32.363Z,7.53
2019-03-26T05:38:17.915Z,7.37
2019-03-26T05:40:55.532Z,8.97
2019-03-26T05:43:33.902Z,9.70
2019-03-26T05:46:07.746Z,9.47
2019-03-26T05:48:41.129Z,9.00
2019-03-26T05:51:13.611Z,7.97
2019-03-26T05:53:46.495Z,8.47
2019-03-26T05:56:18.841Z,9.47
2019-03-26T05:58:51.330Z,9.13
2019-03-26T06:01:24.724Z,8.67
2019-03-26T06:03:57.360Z,8.27
2019-03-26T06:06:30.304Z,8.50
2019-03-26T06:09:07.836Z,8.70
2019-03-26T06:11:40.328Z,7.43
2019-03-26T06:14:13.679Z,8.20
2019-03-26T06:16:46.131Z,7.27
2019-03-26T06:19:23.878Z,8.57
2019-03-26T06:21:57.983Z,8.30
2019-03-26T06:24:31.015Z,9.57
2019-03-26T06:27:03.353Z,8.30
2019-03-26T06:29:37.160Z,9.03
2019-03-26T06:32:12.858Z,13.20
2019-03-26T06:34:45.346Z,9.30
2019-03-26T06:37:19.227Z,7.63
2019-03-26T06:39:52.083Z,9.50
2019-03-26T06:42:24.530Z,9.03
2019-03-26T06:44:57.991Z,9.77
2019-03-26T06:47:30.637Z,9.57
2019-03-26T06:50:03.135Z,9.20
2019-03-26T06:52:36.426Z,11.03
2019-03-26T06:55:09.131Z,8.27
2019-03-26T06:57:42.614Z,9.80
2019-03-26T07:00:15.883Z,8.93
2019-03-26T07:02:48.779Z,10.77
2019-03-26T07:05:20.862Z,10.27
2019-03-26T07:07:53.623Z,9.03
2019-03-26T07:10:29.704Z,9.10
2019-03-26T07:13:02.237Z,9.17
2019-03-26T07:15:35.223Z,9.30
2019-03-26T07:18:08.379Z,8.60
2019-03-26T07:20:40.794Z,9.33
2019-03-26T07:23:13.695Z,9.80
2019-03-26T07:25:46.804Z,9.77
2019-03-26T07:28:19.690Z,8.93
2019-03-26T07:30:52.588Z,10.23
2019-03-26T07:33:25.128Z,11.60
2019-03-26T07:35:58.036Z,10.40
2019-03-26T07:38:30.475Z,10.67
2019-03-26T07:41:04.152Z,11.13
2019-03-26T07:43:37.464Z,11.57
2019-03-26T07:46:10.372Z,9.63
2019-03-26T07:48:42.822Z,11.20
2019-03-26T07:51:16.554Z,11.23
2019-03-26T07:53:49.473Z,9.27
2019-03-26T07:56:22.392Z,9.23
2019-03-26T07:58:55.391Z,10.70
2019-03-26T08:01:27.822Z,9.67
2019-03-26T08:04:01.281Z,9.50
2019-03-26T08:06:34.295Z,12.40
2019-03-26T08:09:07.753Z,9.33
2019-03-26T08:11:40.981Z,10.90
2019-03-26T08:14:14.480Z,8.93
2019-03-26T08:16:47.294Z,9.47
2019-03-26T08:19:19.828Z,8.20
2019-03-26T08:21:52.246Z,8.93
2019-03-26T08:24:25.138Z,6.13
2019-03-26T08:26:58.098Z,9.67
2019-03-26T08:29:31.372Z,7.10
2019-03-26T08:32:04.174Z,12.03
2019-03-26T08:34:37.072Z,7.70
2019-03-26T08:37:10.418Z,11.57
2019-03-26T08:39:43.140Z,9.37
2019-03-26T08:42:16.679Z,12.23
2019-03-26T08:44:49.659Z,7.57
2019-03-26T08:47:22.322Z,11.33
2019-03-26T08:49:54.807Z,9.87
2019-03-26T08:52:27.273Z,9.93
2019-03-26T08:54:59.723Z,10.77
2019-03-26T08:57:32.491Z,8.63
2019-03-26T09:00:05.674Z,8.67
2019-03-26T09:02:39.195Z,7.87
2019-03-26T09:05:14.214Z,7.47
2019-03-26T09:07:46.288Z,10.80
2019-03-26T09:10:20.392Z,9.80
2019-03-26T09:12:54.437Z,10.67
2019-03-26T09:15:27.248Z,8.33
2019-03-26T09:18:01.560Z,7.33
2019-03-26T09:20:34.034Z,6.90
2019-03-26T09:23:06.414Z,6.90
2019-03-26T09:25:38.858Z,8.80
2019-03-26T09:28:11.804Z,6.73
2019-03-26T09:30:45.999Z,6.30
2019-03-26T09:33:18.866Z,7.87
2019-03-26T09:35:52.832Z,6.07
2019-03-26T09:38:38.064Z,7.47
2019-03-26T09:40:59.779Z,8.43
2019-03-26T09:43:32.710Z,7.47
2019-03-26T09:46:05.245Z,7.00
2019-03-26T09:48:38.027Z,7.10
2019-03-26T09:51:11.059Z,8.20
2019-03-26T09:53:43.898Z,7.67
2019-03-26T09:56:28.242Z,8.50
2019-03-26T09:58:50.975Z,7.27
2019-03-26T10:01:23.871Z,5.97
2019-03-26T10:03:56.735Z,5.30
2019-03-26T10:06:29.200Z,5.83
2019-03-26T10:09:02.053Z,5.77
2019-03-26T10:11:35.693Z,5.33
2019-03-26T10:14:08.187Z,6.27
2019-03-26T10:16:41.091Z,5.27
2019-03-26T10:19:16.766Z,5.33
2019-03-26T10:21:48.539Z,6.17
2019-03-26T10:24:22.405Z,5.17
2019-03-26T10:26:54.880Z,5.00
2019-03-26T10:29:30.432Z,6.10
2019-03-26T10:32:02.207Z,5.47
2019-03-26T10:34:36.613Z,6.13
2019-03-26T10:37:08.839Z,4.30
2019-03-26T10:39:41.278Z,5.73
2019-03-26T10:42:14.538Z,5.40
2019-03-26T10:44:47.942Z,5.73
2019-03-26T10:47:20.378Z,5.50
2019-03-26T10:49:52.877Z,4.37
2019-03-26T10:52:25.818Z,3.97
2019-03-26T10:54:58.673Z,8.23
2019-03-26T10:57:31.974Z,5.77
2019-03-26T11:00:05.662Z,6.07
2019-03-26T11:02:40.087Z,5.97
2019-03-26T11:05:14.158Z,5.60
2019-03-26T11:07:46.979Z,5.53
2019-03-26T11:10:19.426Z,6.27
2019-03-26T11:12:52.396Z,6.20
2019-03-26T11:15:25.611Z,6.20
2019-03-26T11:17:58.519Z,5.30
2019-03-26T11:20:31.022Z,6.57
2019-03-26T11:23:03.846Z,7.40
2019-03-26T11:25:37.245Z,7.40
2019-03-26T11:28:10.225Z,4.97
2019-03-26T11:30:42.676Z,5.60
2019-03-26T11:33:16.067Z,4.90
2019-03-26T11:35:48.438Z,6.00
2019-03-26T11:38:21.221Z,4.87
2019-03-26T11:40:53.583Z,6.30
2019-03-26T11:43:26.655Z,5.90
2019-03-26T11:45:59.548Z,5.27
2019-03-26T11:48:32.984Z,6.77
2019-03-26T11:51:06.438Z,3.47
2019-03-26T11:53:39.405Z,3.27
2019-03-26T11:56:12.018Z,3.97
2019-03-26T11:58:44.965Z,4.43
2019-03-26T12:01:17.862Z,4.37
2019-03-26T12:03:50.406Z,4.63
2019-03-26T12:06:22.959Z,5.93
2019-03-26T12:08:55.475Z,4.47
2019-03-26T12:11:28.778Z,5.00
2019-03-26T12:14:01.261Z,4.60
2019-03-26T12:16:34.494Z,4.20
2019-03-26T12:19:07.926Z,4.67
2019-03-26T12:21:40.430Z,4.50
2019-03-26T12:24:12.947Z,3.07
2019-03-26T12:26:45.788Z,5.17
2019-03-26T12:29:19.280Z,4.00
2019-03-26T12:31:51.678Z,4.13
2019-03-26T12:34:24.656Z,5.27
2019-03-26T12:36:57.662Z,4.80
2019-03-26T12:39:30.545Z,4.60
2019-03-26T12:42:04.709Z,4.77
2019-03-26T12:44:37.600Z,5.10
2019-03-26T12:47:10.054Z,4.43
2019-03-26T12:49:42.532Z,5.57
2019-03-26T12:52:15.269Z,5.17
2019-03-26T12:54:48.780Z,4.07
2019-03-26T12:57:22.219Z,4.93
2019-03-26T12:59:55.453Z,4.07
2019-03-26T13:02:27.938Z,5.40
2019-03-26T13:05:01.314Z,4.13
2019-03-26T13:07:34.375Z,8.23
2019-03-26T13:10:14.122Z,5.40
2019-03-26T13:12:42.645Z,3.13
2019-03-26T13:15:16.726Z,6.93
2019-03-26T13:17:49.159Z,4.53
2019-03-26T13:20:21.674Z,4.73
2019-03-26T13:22:54.904Z,5.20
2019-03-26T13:25:28.125Z,6.73
2019-03-26T13:28:00.575Z,4.07
2019-03-26T13:30:33.206Z,5.30
2019-03-26T13:33:07.823Z,6.43
2019-03-26T13:35:40.326Z,4.17
2019-03-26T13:38:13.056Z,3.87
2019-03-26T13:40:45.578Z,4.47
2019-03-26T13:43:18.508Z,5.47
2019-03-26T13:45:51.321Z,3.57
2019-03-26T13:48:23.767Z,4.13
2019-03-26T13:50:57.276Z,6.40
2019-03-26T13:53:30.930Z,5.77
2019-03-26T13:56:03.880Z,4.30
2019-03-26T13:58:36.705Z,4.90
2019-03-26T14:01:09.115Z,4.90
2019-03-26T14:03:42.947Z,4.53
2019-03-26T14:06:15.894Z,5.43
2019-03-26T14:08:49.250Z,7.10
2019-03-26T14:11:22.582Z,5.97
2019-03-26T14:13:55.033Z,6.30
2019-03-26T14:16:27.931Z,8.53
2019-03-26T14:19:02.140Z,9.03
2019-03-26T14:21:34.958Z,4.33
2019-03-26T14:24:07.332Z,7.43
2019-03-26T14:26:40.298Z,5.93
2019-03-26T14:29:12.839Z,5.33
2019-03-26T14:31:45.295Z,7.27
2019-03-26T14:34:18.231Z,7.70
2019-03-26T14:36:50.781Z,6.40
2019-03-26T14:39:23.297Z,5.97
2019-03-26T14:41:55.705Z,5.90
2019-03-26T14:44:28.207Z,6.83
2019-03-26T14:47:01.577Z,9.47
2019-03-26T14:49:34.503Z,9.20
2019-03-26T14:52:07.781Z,7.73
2019-03-26T14:54:41.881Z,9.03
2019-03-26T14:57:14.911Z,8.17
2019-03-26T14:59:48.430Z,7.07
2019-03-26T15:02:20.859Z,8.17
2019-03-26T15:04:54.088Z,6.43
2019-03-26T15:07:27.565Z,7.03
2019-03-26T15:10:00.366Z,5.93
2019-03-26T15:12:32.988Z,9.93
2019-03-26T15:15:07.915Z,8.27
2019-03-26T15:17:41.411Z,6.17
2019-03-26T15:20:14.594Z,7.87
2019-03-26T15:22:47.486Z,6.20
2019-03-26T15:25:21.119Z,8.40
2019-03-26T15:27:53.914Z,5.93
2019-03-26T15:30:26.714Z,6.77
2019-03-26T15:32:59.231Z,7.73
2019-03-26T15:35:31.749Z,6.90
2019-03-26T15:38:05.151Z,5.27
2019-03-26T15:40:37.830Z,8.20
2019-03-26T15:43:11.104Z,8.37
2019-03-26T15:45:43.597Z,8.37
2019-03-26T15:48:16.066Z,7.83
2019-03-26T15:50:48.666Z,6.20
2019-03-26T15:53:21.471Z,7.80
2019-03-26T15:55:53.882Z,8.10
2019-03-26T15:58:26.364Z,8.40
2019-03-26T16:00:58.764Z,9.47
2019-03-26T16:03:31.279Z,8.80
2019-03-26T16:06:03.634Z,8.23
2019-03-26T16:08:36.297Z,6.17
2019-03-26T16:11:08.802Z,7.43
2019-03-26T16:13:41.901Z,6.40
2019-03-26T16:16:14.836Z,8.23
2019-03-26T16:18:47.327Z,9.07
2019-03-26T16:21:19.847Z,7.70
2019-03-26T16:23:52.766Z,8.27
2019-03-26T16:26:25.374Z,6.67
2019-03-26T16:28:58.819Z,5.73
2019-03-26T16:31:31.691Z,9.30
2019-03-26T16:34:05.495Z,7.67
2019-03-26T16:36:38.314Z,7.60
2019-03-26T16:39:10.780Z,6.87
2019-03-26T16:41:48.946Z,8.10
2019-03-26T16:44:17.863Z,7.60
2019-03-26T16:46:50.766Z,7.90
2019-03-26T16:49:23.979Z,5.80
2019-03-26T16:51:56.888Z,8.23
2019-03-26T16:54:30.722Z,7.57
2019-03-26T16:57:03.954Z,7.90
2019-03-26T16:59:38.381Z,9.10
2019-03-26T17:02:11.381Z,7.87
2019-03-26T17:04:46.869Z,8.73
2019-03-26T17:07:19.153Z,10.23
2019-03-26T17:09:51.914Z,11.03
2019-03-26T17:12:25.015Z,9.10
2019-03-26T17:14:59.058Z,8.23
2019-03-26T17:17:47.991Z,13.63
2019-03-26T17:20:34.105Z,7.57
2019-03-26T17:23:09.969Z,9.67
2019-03-26T17:25:51.613Z,13.13
2019-03-26T17:28:27.075Z,10.80
2019-03-26T17:31:07.654Z,10.33
2019-03-26T17:33:48.174Z,9.00
2019-03-26T17:36:26.901Z,9.00
2019-03-26T17:39:01.542Z,11.83
2019-03-26T17:41:35.731Z,9.03
2019-03-26T17:44:15.811Z,8.73
2019-03-26T17:46:51.107Z,9.90
2019-03-26T17:49:24.458Z,9.10
2019-03-26T17:51:57.278Z,9.13
2019-03-26T17:54:30.151Z,9.63
2019-03-26T17:57:04.434Z,7.17
2019-03-26T17:59:53.386Z,10.73
2019-03-26T18:02:30.425Z,8.70
2019-03-26T18:05:12.100Z,11.83
2019-03-26T18:07:47.731Z,10.20
2019-03-26T18:10:20.210Z,12.10
2019-03-26T18:13:10.199Z,10.00
2019-03-26T18:15:43.239Z,10.27
2019-03-26T18:18:15.762Z,14.27
2019-03-26T18:20:49.197Z,8.70
2019-03-26T18:23:22.367Z,9.43
2019-03-26T18:25:55.364Z,10.87
2019-03-26T18:28:29.579Z,9.67
2019-03-26T18:31:02.880Z,8.70
2019-03-26T18:33:35.818Z,9.07
2019-03-26T18:36:09.530Z,11.57
2019-03-26T18:38:42.774Z,11.50
2019-03-26T18:41:16.315Z,8.63
2019-03-26T18:43:50.131Z,7.47
2019-03-26T18:46:23.226Z,11.20
2019-03-26T18:48:55.715Z,11.00
2019-03-26T18:51:28.603Z,9.43
2019-03-26T18:54:01.093Z,8.93
2019-03-26T18:56:33.979Z,10.60
2019-03-26T18:59:06.938Z,8.93
2019-03-26T19:01:40.438Z,9.90
2019-03-26T19:04:12.986Z,12.47
2019-03-26T19:06:45.819Z,10.23
2019-03-26T19:09:18.996Z,11.93
2019-03-26T19:11:52.480Z,12.30
2019-03-26T19:14:25.713Z,10.03
2019-03-26T19:16:58.079Z,11.63
2019-03-26T19:19:31.378Z,11.00
2019-03-26T19:22:05.570Z,10.03
2019-03-26T19:24:38.414Z,10.00
2019-03-26T19:27:11.377Z,8.43
2019-03-26T19:29:43.821Z,11.23
2019-03-26T19:32:16.250Z,10.40
2019-03-26T19:34:51.079Z,13.83
2019-03-26T19:37:24.978Z,8.53
2019-03-26T19:39:58.837Z,10.30
2019-03-26T19:42:32.803Z,11.33
2019-03-26T19:45:05.730Z,11.37
2019-03-26T19:47:40.093Z,12.33
2019-03-26T19:50:14.260Z,12.67
2019-03-26T19:52:47.607Z,14.80
2019-03-26T19:55:21.069Z,12.07
2019-03-26T19:57:54.581Z,11.57
2019-03-26T20:00:27.104Z,10.37
2019-03-26T20:03:01.662Z,12.20
2019-03-26T20:05:35.669Z,16.43
2019-03-26T20:08:09.085Z,16.57
2019-03-26T20:10:41.838Z,14.87
2019-03-26T20:13:24.263Z,10.70
2019-03-26T20:15:50.288Z,14.57
2019-03-26T20:18:22.739Z,13.83
2019-03-26T20:20:56.325Z,14.07
2019-03-26T20:23:29.370Z,16.80
2019-03-26T20:26:01.887Z,16.57
2019-03-26T20:28:36.015Z,16.53
2019-03-26T20:31:10.687Z,15.93
2019-03-26T20:33:43.629Z,18.37
2019-03-26T20:36:17.471Z,17.73
2019-03-26T20:38:51.521Z,15.70
2019-03-26T20:41:24.634Z,16.30
2019-03-26T20:43:57.150Z,15.37
2019-03-26T20:46:31.130Z,19.07
2019-03-26T20:49:05.597Z,17.97
2019-03-26T20:51:39.228Z,15.07
2019-03-26T20:54:13.796Z,19.00
2019-03-26T20:56:49.779Z,22.23
2019-03-26T20:59:22.510Z,19.40
2019-03-26T21:01:57.438Z,15.10
2019-03-26T21:04:32.148Z,22.57
2019-03-26T21:07:06.513Z,18.63
2019-03-26T21:09:40.646Z,20.17
2019-03-26T21:12:16.914Z,21.00
2019-03-26T21:14:49.980Z,19.20
2019-03-26T21:17:22.950Z,21.90
2019-03-26T21:19:57.011Z,19.33
2019-03-26T21:22:32.478Z,19.87
2019-03-26T21:25:06.398Z,18.03
2019-03-26T21:27:40.433Z,19.80
2019-03-26T21:30:15.975Z,23.00
2019-03-26T21:32:51.837Z,20.10
2019-03-26T21:35:28.803Z,21.97
2019-03-26T21:38:02.234Z,20.23
2019-03-26T21:40:36.230Z,20.50
2019-03-26T21:43:09.260Z,22.10
2019-03-26T21:45:43.144Z,19.40
2019-03-26T21:48:16.574Z,20.53
2019-03-26T21:50:51.039Z,21.97
2019-03-26T21:53:25.909Z,20.17
2019-03-26T21:56:06.298Z,25.83
2019-03-26T21:58:35.415Z,18.70
2019-03-26T22:01:10.253Z,20.17
2019-03-26T22:03:43.243Z,22.50
2019-03-26T22:06:15.758Z,24.63
2019-03-26T22:08:49.739Z,20.90
2019-03-26T22:11:28.970Z,16.70
2019-03-26T22:14:17.419Z,17.70
2019-03-26T22:16:41.542Z,20.33
2019-03-26T22:19:28.015Z,18.17
2019-03-26T22:21:50.134Z,18.67
2019-03-26T22:24:23.906Z,19.73
2019-03-26T22:26:56.327Z,18.17
2019-03-26T22:29:29.150Z,20.37
2019-03-26T22:32:04.374Z,22.40
2019-03-26T22:34:38.417Z,17.97
2019-03-26T22:37:12.940Z,20.70
2019-03-26T22:39:47.127Z,21.13
2019-03-26T22:42:21.202Z,21.13
2019-03-26T22:44:55.694Z,19.77
2019-03-26T22:47:29.255Z,20.50
2019-03-26T22:50:02.887Z,23.67
2019-03-26T22:52:35.837Z,21.53
2019-03-26T22:55:11.208Z,22.43
2019-03-26T22:57:45.002Z,21.63
2019-03-26T23:00:20.925Z,18.57
2019-03-26T23:02:57.237Z,23.77
2019-03-26T23:05:29.785Z,23.30
2019-03-26T23:08:04.129Z,20.23
2019-03-26T23:10:36.672Z,17.87
2019-03-26T23:13:10.429Z,19.93
2019-03-26T23:15:45.602Z,18.93
2019-03-26T23:18:19.993Z,22.63
2019-03-26T23:20:54.288Z,20.30
2019-03-26T23:23:27.215Z,21.73
2019-03-26T23:26:01.719Z,19.27
2019-03-26T23:28:34.227Z,24.83
2019-03-26T23:31:09.318Z,25.13
2019-03-26T23:33:44.266Z,23.43
2019-03-26T23:36:17.812Z,25.40
2019-03-26T23:38:50.416Z,19.17
2019-03-26T23:41:24.301Z,22.60
2019-03-26T23:44:00.194Z,21.33
2019-03-26T23:46:34.130Z,20.83
2019-03-26T23:49:06.923Z,22.17
2019-03-26T23:51:42.002Z,22.90
2019-03-26T23:54:16.131Z,21.77
2019-03-26T23:56:48.806Z,25.03
2019-03-26T23:59:22.257Z,22.17
